createdAt,value
2022-10-28T00:01:15.668Z,96.40
2022-10-28T00:03:46.492Z,96.50
2022-10-28T00:06:19.282Z,96.50
2022-10-28T00:08:48.371Z,96.50
2022-10-28T00:11:18.837Z,96.50
2022-10-28T00:13:46.247Z,96.50
2022-10-28T00:16:16.581Z,96.50
2022-10-28T00:18:44.591Z,96.50
2022-10-28T00:21:14.665Z,96.60
2022-10-28T00:23:41.959Z,96.50
2022-10-28T00:26:14.791Z,96.60
2022-10-28T00:28:43.761Z,96.50
2022-10-28T00:31:13.029Z,96.60
2022-10-28T00:33:40.208Z,96.60
2022-10-28T00:36:14.035Z,96.60
2022-10-28T00:38:42.440Z,96.60
2022-10-28T00:41:10.811Z,96.60
2022-10-28T00:43:58.260Z,96.60
2022-10-28T00:46:37.159Z,96.60
2022-10-28T00:49:12.868Z,96.60
2022-10-28T00:51:40.217Z,96.60
2022-10-28T00:54:07.799Z,96.60
2022-10-28T00:56:40.334Z,96.60
2022-10-28T00:59:11.442Z,96.60
2022-10-28T01:01:38.589Z,96.60
2022-10-28T01:04:05.679Z,96.70
2022-10-28T01:06:35.374Z,96.60
2022-10-28T01:09:05.686Z,96.70
2022-10-28T01:11:43.204Z,96.70
2022-10-28T01:14:16.368Z,96.70
2022-10-28T01:16:49.555Z,96.70
2022-10-28T01:19:28.220Z,96.70
2022-10-28T01:22:23.894Z,96.70
2022-10-28T01:25:19.408Z,96.70
2022-10-28T01:28:02.707Z,96.70
2022-10-28T01:30:40.318Z,96.70
2022-10-28T01:33:19.842Z,96.70
2022-10-28T01:35:53.760Z,96.70
2022-10-28T01:39:01.771Z,96.70
2022-10-28T01:41:40.887Z,96.70
2022-10-28T01:44:23.757Z,96.70
2022-10-28T01:47:00.716Z,96.70
2022-10-28T01:49:45.406Z,96.70
2022-10-28T01:52:15.741Z,96.70
2022-10-28T01:54:53.020Z,96.70
2022-10-28T01:57:21.175Z,96.70
2022-10-28T01:59:49.614Z,96.80
2022-10-28T02:02:17.468Z,96.70
2022-10-28T02:04:44.479Z,96.70
2022-10-28T02:07:11.626Z,96.80
2022-10-28T02:10:13.536Z,96.80
2022-10-28T02:12:40.549Z,96.70
2022-10-28T02:15:33.508Z,96.80
2022-10-28T02:18:04.147Z,96.70
2022-10-28T02:20:50.260Z,96.80
2022-10-28T02:23:38.430Z,96.80
2022-10-28T02:26:14.455Z,96.80
2022-10-28T02:29:05.121Z,96.70
2022-10-28T02:31:35.434Z,96.80
2022-10-28T02:34:33.729Z,96.70
2022-10-28T02:37:06.615Z,96.70
2022-10-28T02:39:39.631Z,96.70
2022-10-28T02:42:24.447Z,96.70
2022-10-28T02:45:00.338Z,96.70
2022-10-28T02:47:33.624Z,96.70
2022-10-28T02:50:04.681Z,96.80
2022-10-28T02:52:34.234Z,96.80
2022-10-28T02:55:07.248Z,96.80
2022-10-28T02:57:43.425Z,96.80
2022-10-28T03:00:15.732Z,96.80
2022-10-28T03:02:42.804Z,96.80
2022-10-28T03:05:10.435Z,96.80
2022-10-28T03:07:37.413Z,96.80
2022-10-28T03:10:04.845Z,96.80
2022-10-28T03:12:31.824Z,96.80
2022-10-28T03:14:58.780Z,96.80
2022-10-28T03:17:25.765Z,96.80
2022-10-28T03:19:52.599Z,96.80
2022-10-28T03:22:19.553Z,96.90
2022-10-28T03:24:46.500Z,96.90
2022-10-28T03:27:13.474Z,96.90
2022-10-28T03:29:44.838Z,96.90
2022-10-28T03:32:13.187Z,96.80
2022-10-28T03:34:40.198Z,96.90
2022-10-28T03:37:07.225Z,96.90
2022-10-28T03:39:34.476Z,96.90
2022-10-28T03:42:01.601Z,96.90
2022-10-28T03:44:28.608Z,96.90
2022-10-28T03:46:55.670Z,96.90
2022-10-28T03:49:25.299Z,96.90
2022-10-28T03:51:52.235Z,96.90
2022-10-28T03:54:19.095Z,96.90
2022-10-28T03:56:46.052Z,96.90
2022-10-28T03:59:15.101Z,96.90
2022-10-28T04:01:44.731Z,96.90
2022-10-28T04:04:11.707Z,96.90
2022-10-28T04:06:38.674Z,96.90
2022-10-28T04:09:05.693Z,96.90
2022-10-28T04:11:35.381Z,96.90
2022-10-28T04:14:02.506Z,96.90
2022-10-28T04:16:29.399Z,96.90
2022-10-28T04:18:56.316Z,96.90
2022-10-28T04:21:23.234Z,96.90
2022-10-28T04:23:50.213Z,96.90
2022-10-28T04:26:17.229Z,96.90
2022-10-28T04:28:44.298Z,96.90
2022-10-28T04:31:12.311Z,96.90
2022-10-28T04:33:39.254Z,96.90
2022-10-28T04:36:06.635Z,96.90
2022-10-28T04:38:33.524Z,96.90
2022-10-28T04:41:00.446Z,96.90
2022-10-28T04:43:27.399Z,97.00
2022-10-28T04:45:54.576Z,96.90
2022-10-28T04:48:21.736Z,96.90
2022-10-28T04:50:48.700Z,96.90
2022-10-28T04:53:15.657Z,96.90
2022-10-28T04:55:42.892Z,96.90
2022-10-28T04:58:10.503Z,97.20
2022-10-28T05:00:37.530Z,96.90
2022-10-28T05:03:04.785Z,96.90
2022-10-28T05:05:32.030Z,97.00
2022-10-28T05:07:59.051Z,96.90
2022-10-28T05:10:28.675Z,96.90
2022-10-28T05:12:55.595Z,96.90
2022-10-28T05:15:26.561Z,97.10
2022-10-28T05:17:54.035Z,97.00
2022-10-28T05:20:23.525Z,97.00
2022-10-28T05:22:56.046Z,97.00
2022-10-28T05:25:23.991Z,97.00
2022-10-28T05:27:51.273Z,96.90
2022-10-28T05:30:19.098Z,97.00
2022-10-28T05:32:48.240Z,97.00
2022-10-28T05:35:17.383Z,97.00
2022-10-28T05:37:44.560Z,97.00
2022-10-28T05:40:12.277Z,97.00
2022-10-28T05:42:42.638Z,97.00
2022-10-28T05:45:10.838Z,96.90
2022-10-28T05:47:43.447Z,97.00
2022-10-28T05:50:10.509Z,97.00
2022-10-28T05:52:37.559Z,97.00
2022-10-28T05:55:04.973Z,97.10
2022-10-28T05:57:35.699Z,97.00
2022-10-28T06:00:04.666Z,97.00
2022-10-28T06:02:39.593Z,97.00
2022-10-28T06:05:06.918Z,97.00
2022-10-28T06:07:34.862Z,97.00
2022-10-28T06:10:02.969Z,97.00
2022-10-28T06:12:28.456Z,97.00
2022-10-28T06:14:55.524Z,97.00
2022-10-28T06:17:22.850Z,97.00
2022-10-28T06:19:49.820Z,97.00
2022-10-28T06:22:17.432Z,97.30
2022-10-28T06:24:44.429Z,97.00
2022-10-28T06:27:11.350Z,97.00
2022-10-28T06:29:38.213Z,97.00
2022-10-28T06:32:09.279Z,97.00
2022-10-28T06:34:37.732Z,97.00
2022-10-28T06:37:09.274Z,97.00
2022-10-28T06:39:38.427Z,97.00
2022-10-28T06:42:05.575Z,97.00
2022-10-28T06:44:32.630Z,97.00
2022-10-28T06:47:01.109Z,97.00
2022-10-28T06:49:29.132Z,97.00
2022-10-28T06:51:56.149Z,97.20
2022-10-28T06:54:23.961Z,96.90
2022-10-28T06:56:50.978Z,96.90
2022-10-28T06:59:17.938Z,96.90
2022-10-28T07:02:00.922Z,96.90
2022-10-28T07:04:28.022Z,96.80
2022-10-28T07:06:56.417Z,96.90
2022-10-28T07:09:23.699Z,96.80
2022-10-28T07:11:54.987Z,96.80
2022-10-28T07:14:22.960Z,96.80
2022-10-28T07:16:50.161Z,96.70
2022-10-28T07:19:20.276Z,96.70
2022-10-28T07:21:49.430Z,96.70
2022-10-28T07:24:16.486Z,96.70
2022-10-28T07:26:46.075Z,96.70
2022-10-28T07:29:13.024Z,96.70
2022-10-28T07:31:42.648Z,96.60
2022-10-28T07:34:09.682Z,96.60
2022-10-28T07:36:36.768Z,96.60
2022-10-28T07:39:04.134Z,96.60
2022-10-28T07:41:31.200Z,96.50
2022-10-28T07:43:58.383Z,96.50
2022-10-28T07:46:25.431Z,96.50
2022-10-28T07:48:52.508Z,96.50
2022-10-28T07:51:19.551Z,96.50
2022-10-28T07:53:46.438Z,96.50
2022-10-28T07:56:13.846Z,96.50
2022-10-28T07:58:42.308Z,96.50
2022-10-28T08:01:11.544Z,96.40
2022-10-28T08:03:39.342Z,96.40
2022-10-28T08:06:12.527Z,96.40
2022-10-28T08:08:40.242Z,96.40
2022-10-28T08:11:15.947Z,96.40
2022-10-28T08:13:43.394Z,96.30
2022-10-28T08:16:10.642Z,96.30
2022-10-28T08:18:38.860Z,96.30
2022-10-28T08:21:08.036Z,96.20
2022-10-28T08:23:35.862Z,96.20
2022-10-28T08:26:03.087Z,96.10
2022-10-28T08:28:30.113Z,96.10
2022-10-28T08:31:09.196Z,96.00
2022-10-28T08:33:45.271Z,96.00
2022-10-28T08:36:14.338Z,95.90
2022-10-28T08:38:45.820Z,95.90
2022-10-28T08:41:36.216Z,95.90
2022-10-28T08:44:32.207Z,95.80
2022-10-28T08:47:19.403Z,95.80
2022-10-28T08:49:51.683Z,95.80
2022-10-28T08:52:32.079Z,95.80
2022-10-28T08:55:06.910Z,95.70
2022-10-28T08:57:57.835Z,95.70
2022-10-28T09:00:28.224Z,95.70
2022-10-28T09:03:03.963Z,95.60
2022-10-28T09:05:31.064Z,95.50
2022-10-28T09:07:58.922Z,95.50
2022-10-28T09:10:55.622Z,95.40
2022-10-28T09:13:41.205Z,95.40
2022-10-28T09:16:35.425Z,95.30
2022-10-28T09:19:36.449Z,95.20
2022-10-28T09:22:19.923Z,95.20
2022-10-28T09:24:49.245Z,95.10
2022-10-28T09:27:36.811Z,95.00
2022-10-28T09:30:41.430Z,94.90
2022-10-28T09:33:35.884Z,94.90
2022-10-28T09:36:10.407Z,94.80
2022-10-28T09:38:38.052Z,94.80
2022-10-28T09:41:13.139Z,94.80
2022-10-28T09:43:59.446Z,94.70
2022-10-28T09:46:33.232Z,94.70
2022-10-28T09:49:09.919Z,94.60
2022-10-28T09:52:05.857Z,94.50
2022-10-28T09:54:39.538Z,94.50
2022-10-28T09:57:06.802Z,94.40
2022-10-28T09:59:34.851Z,94.40
2022-10-28T10:02:04.341Z,94.40
2022-10-28T10:04:31.553Z,94.30
2022-10-28T10:07:04.310Z,94.30
2022-10-28T10:09:33.330Z,94.30
2022-10-28T10:12:08.900Z,94.20
2022-10-28T10:14:59.061Z,94.20
2022-10-28T10:17:39.305Z,94.30
2022-10-28T10:20:34.921Z,94.20
2022-10-28T10:23:01.872Z,94.30
2022-10-28T10:25:31.162Z,94.30
2022-10-28T10:28:05.526Z,94.30
2022-10-28T10:30:45.339Z,94.30
2022-10-28T10:33:39.749Z,94.30
2022-10-28T10:36:09.774Z,94.30
2022-10-28T10:38:37.916Z,94.20
2022-10-28T10:41:05.320Z,94.20
2022-10-28T10:43:34.416Z,94.20
2022-10-28T10:46:12.751Z,94.20
2022-10-28T10:48:39.854Z,94.10
2022-10-28T10:51:26.176Z,94.20
2022-10-28T10:53:57.809Z,94.10
2022-10-28T10:56:33.320Z,94.10
2022-10-28T10:59:04.416Z,94.10
2022-10-28T11:01:38.457Z,94.10
2022-10-28T11:04:07.708Z,94.30
2022-10-28T11:06:38.867Z,94.20
2022-10-28T11:09:18.106Z,93.90
2022-10-28T11:11:47.497Z,93.90
2022-10-28T11:14:14.493Z,93.80
2022-10-28T11:16:59.498Z,93.80
2022-10-28T11:19:37.700Z,93.70
2022-10-28T11:22:10.480Z,93.70
2022-10-28T11:24:43.262Z,93.60
2022-10-28T11:27:16.128Z,93.40
2022-10-28T11:29:44.588Z,93.20
2022-10-28T11:32:26.320Z,93.10
2022-10-28T11:35:13.765Z,93.00
2022-10-28T11:37:56.952Z,92.80
2022-10-28T11:41:02.749Z,92.70
2022-10-28T11:43:55.728Z,92.60
2022-10-28T11:46:30.402Z,92.40
2022-10-28T11:49:10.169Z,92.40
2022-10-28T11:51:46.440Z,92.40
2022-10-28T11:54:31.811Z,92.30
2022-10-28T11:57:14.900Z,92.10
2022-10-28T11:59:57.098Z,92.20
2022-10-28T12:03:09.177Z,92.10
2022-10-28T12:05:55.092Z,91.90
2022-10-28T12:08:29.971Z,91.80
2022-10-28T12:11:08.063Z,91.80
2022-10-28T12:13:48.787Z,91.80
2022-10-28T12:16:40.151Z,91.60
2022-10-28T12:19:17.229Z,91.70
2022-10-28T12:22:18.052Z,91.70
2022-10-28T12:24:47.081Z,91.80
2022-10-28T12:27:36.630Z,91.90
2022-10-28T12:30:16.412Z,91.40
2022-10-28T12:32:45.896Z,91.40
2022-10-28T12:35:25.250Z,91.40
2022-10-28T12:38:01.117Z,91.30
2022-10-28T12:40:53.205Z,91.30
2022-10-28T12:43:41.876Z,91.10
2022-10-28T12:46:22.954Z,91.10
2022-10-28T12:48:58.270Z,91.10
2022-10-28T12:51:40.787Z,90.90
2022-10-28T12:54:51.218Z,90.60
2022-10-28T12:57:27.207Z,90.30
2022-10-28T13:00:03.081Z,90.20
2022-10-28T13:02:43.430Z,90.20
2022-10-28T13:05:26.260Z,90.00
2022-10-28T13:08:15.505Z,89.00
2022-10-28T13:10:59.909Z,88.50
2022-10-28T13:13:46.984Z,88.30
2022-10-28T13:17:01.080Z,88.50
2022-10-28T13:20:06.471Z,88.30
2022-10-28T13:22:40.695Z,87.90
2022-10-28T13:25:37.952Z,87.70
2022-10-28T13:28:05.630Z,86.50
2022-10-28T13:30:35.371Z,86.10
2022-10-28T13:33:09.862Z,85.40
2022-10-28T13:35:37.478Z,85.30
2022-10-28T13:38:11.133Z,85.30
2022-10-28T13:40:40.999Z,84.70
2022-10-28T13:43:20.185Z,83.80
2022-10-28T13:45:55.259Z,83.60
2022-10-28T13:48:31.288Z,84.00
2022-10-28T13:51:10.450Z,84.70
2022-10-28T13:53:39.140Z,84.50
2022-10-28T13:56:27.485Z,84.90
2022-10-28T13:59:14.757Z,85.10
2022-10-28T14:01:41.886Z,85.10
2022-10-28T14:04:29.441Z,84.70
2022-10-28T14:07:11.084Z,85.20
2022-10-28T14:09:41.258Z,85.30
2022-10-28T14:12:19.462Z,85.10
2022-10-28T14:15:17.596Z,84.40
2022-10-28T14:18:15.740Z,84.40
2022-10-28T14:21:01.157Z,84.50
2022-10-28T14:23:31.196Z,84.80
2022-10-28T14:26:04.860Z,84.70
2022-10-28T14:28:32.187Z,85.10
2022-10-28T14:31:25.664Z,85.00
2022-10-28T14:33:55.774Z,85.00
2022-10-28T14:37:03.672Z,84.80
2022-10-28T14:39:36.579Z,85.00
2022-10-28T14:42:18.644Z,85.50
2022-10-28T14:45:28.019Z,85.70
2022-10-28T14:48:17.823Z,86.00
2022-10-28T14:50:47.829Z,86.20
2022-10-28T14:53:19.049Z,86.40
2022-10-28T14:55:50.200Z,86.60
2022-10-28T14:58:25.221Z,86.80
2022-10-28T15:01:12.633Z,86.70
2022-10-28T15:04:03.033Z,87.00
2022-10-28T15:06:39.378Z,87.10
2022-10-28T15:09:25.207Z,87.20
2022-10-28T15:12:00.754Z,88.10
2022-10-28T15:14:30.974Z,87.40
2022-10-28T15:16:58.542Z,87.40
2022-10-28T15:19:28.071Z,87.30
2022-10-28T15:22:14.957Z,87.30
2022-10-28T15:24:44.789Z,87.20
2022-10-28T15:27:22.513Z,87.30
2022-10-28T15:29:50.428Z,87.40
2022-10-28T15:32:20.577Z,87.50
2022-10-28T15:34:48.831Z,87.50
2022-10-28T15:37:21.656Z,87.70
2022-10-28T15:39:58.642Z,88.00
2022-10-28T15:42:45.590Z,87.60
2022-10-28T15:45:23.204Z,87.70
2022-10-28T15:47:50.608Z,88.00
2022-10-28T15:50:17.537Z,88.30
2022-10-28T15:52:48.163Z,88.50
2022-10-28T15:55:41.045Z,88.50
2022-10-28T15:58:19.292Z,88.60
2022-10-28T16:00:57.634Z,88.90
2022-10-28T16:03:41.814Z,89.20
2022-10-28T16:06:36.974Z,89.60
2022-10-28T16:09:14.331Z,89.80
2022-10-28T16:11:46.775Z,90.10
2022-10-28T16:14:34.068Z,90.10
2022-10-28T16:17:17.259Z,90.00
2022-10-28T16:20:15.438Z,90.10
2022-10-28T16:22:45.639Z,90.10
2022-10-28T16:25:15.280Z,90.20
2022-10-28T16:27:45.634Z,90.30
2022-10-28T16:30:16.655Z,90.30
2022-10-28T16:33:05.969Z,90.40
2022-10-28T16:35:36.089Z,90.50
2022-10-28T16:38:04.374Z,90.50
2022-10-28T16:43:23.845Z,90.70
2022-10-28T16:45:52.653Z,90.80
2022-10-28T16:48:20.685Z,91.00
2022-10-28T16:51:03.168Z,91.10
2022-10-28T16:53:34.698Z,91.20
2022-10-28T16:56:01.926Z,91.20
2022-10-28T16:58:29.608Z,91.30
2022-10-28T17:00:57.174Z,91.30
2022-10-28T17:03:24.312Z,91.40
2022-10-28T17:05:53.349Z,91.40
2022-10-28T17:08:42.258Z,91.50
2022-10-28T17:11:14.582Z,91.60
2022-10-28T17:13:41.970Z,91.70
2022-10-28T17:16:08.878Z,91.80
2022-10-28T17:18:35.848Z,91.80
2022-10-28T17:21:05.605Z,91.90
2022-10-28T17:23:34.882Z,92.00
2022-10-28T17:26:12.982Z,92.10
2022-10-28T17:28:40.066Z,92.10
2022-10-28T17:31:08.859Z,92.20
2022-10-28T17:33:35.954Z,92.30
2022-10-28T17:36:08.166Z,92.30
2022-10-28T17:38:38.474Z,92.30
2022-10-28T17:41:13.037Z,92.40
2022-10-28T17:43:49.317Z,92.40
2022-10-28T17:46:16.666Z,92.50
2022-10-28T17:48:47.464Z,92.50
2022-10-28T17:51:14.699Z,92.50
2022-10-28T17:53:41.846Z,92.60
2022-10-28T17:56:13.432Z,92.60
2022-10-28T17:58:40.443Z,92.60
2022-10-28T18:01:08.953Z,92.70
2022-10-28T18:03:41.221Z,92.70
2022-10-28T18:06:10.921Z,92.70
2022-10-28T18:11:23.946Z,92.70
2022-10-28T18:13:52.971Z,92.70
2022-10-28T18:16:25.344Z,92.80
2022-10-28T18:18:55.889Z,92.80
2022-10-28T18:21:24.724Z,92.90
2022-10-28T18:24:03.438Z,92.90
2022-10-28T18:26:34.325Z,93.00
2022-10-28T18:29:04.068Z,93.10
2022-10-28T18:31:33.123Z,93.20
2022-10-28T18:34:01.003Z,93.20
2022-10-28T18:36:31.031Z,93.30
2022-10-28T18:39:02.969Z,93.40
2022-10-28T18:41:34.597Z,93.50
2022-10-28T18:44:05.690Z,93.60
2022-10-28T18:46:37.999Z,93.60
2022-10-28T18:49:05.607Z,93.70
2022-10-28T18:51:39.629Z,93.80
2022-10-28T18:54:06.871Z,93.80
2022-10-28T18:56:34.548Z,93.90
2022-10-28T18:59:09.686Z,93.90
2022-10-28T19:01:37.599Z,93.90
2022-10-28T19:04:05.473Z,94.00
2022-10-28T19:06:33.528Z,94.00
2022-10-28T19:09:03.248Z,94.00
2022-10-28T19:11:31.665Z,94.00
2022-10-28T19:14:05.845Z,94.00
2022-10-28T19:16:34.392Z,94.10
2022-10-28T19:19:03.874Z,94.10
2022-10-28T19:21:33.587Z,94.20
2022-10-28T19:24:06.701Z,94.20
2022-10-28T19:26:36.753Z,94.20
2022-10-28T19:29:07.062Z,94.30
2022-10-28T19:31:37.193Z,94.30
2022-10-28T19:34:07.693Z,94.30
2022-10-28T19:36:34.951Z,94.30
2022-10-28T19:39:11.601Z,94.10
2022-10-28T19:41:38.719Z,94.10
2022-10-28T19:44:06.103Z,94.00
2022-10-28T19:46:36.421Z,94.00
2022-10-28T19:49:08.974Z,94.10
2022-10-28T19:51:44.854Z,94.20
2022-10-28T19:54:13.279Z,94.20
2022-10-28T19:56:42.750Z,94.10
2022-10-28T19:59:09.875Z,94.10
2022-10-28T20:01:38.735Z,94.10
2022-10-28T20:04:06.710Z,94.20
2022-10-28T20:06:36.335Z,94.20
2022-10-28T20:09:04.306Z,94.20
2022-10-28T20:11:48.244Z,94.20
2022-10-28T20:14:15.413Z,94.10
2022-10-28T20:16:43.636Z,94.20
2022-10-28T20:19:10.622Z,94.30
2022-10-28T20:21:38.207Z,94.30
2022-10-28T20:24:06.947Z,94.30
2022-10-28T20:26:35.638Z,94.40
2022-10-28T20:29:03.253Z,94.50
2022-10-28T20:31:32.085Z,94.50
2022-10-28T20:34:03.982Z,94.50
2022-10-28T20:36:33.558Z,94.50
2022-10-28T20:39:23.666Z,94.60
2022-10-28T20:41:51.340Z,94.60
2022-10-28T20:44:18.661Z,94.70
2022-10-28T20:46:48.238Z,94.70
2022-10-28T20:49:15.593Z,94.70
2022-10-28T20:51:45.224Z,94.70
2022-10-28T20:54:12.220Z,94.70
2022-10-28T20:56:40.509Z,94.70
2022-10-28T20:59:07.765Z,94.70
2022-10-28T21:01:39.872Z,94.70
2022-10-28T21:04:09.508Z,94.70
2022-10-28T21:06:37.980Z,94.70
2022-10-28T21:09:05.352Z,94.70
2022-10-28T21:11:32.647Z,94.60
2022-10-28T21:14:01.050Z,94.70
2022-10-28T21:16:29.742Z,94.70
2022-10-28T21:18:57.113Z,94.70
2022-10-28T21:21:25.069Z,95.00
2022-10-28T21:23:52.053Z,94.80
2022-10-28T21:26:19.258Z,94.80
2022-10-28T21:28:50.388Z,94.90
2022-10-28T21:31:18.390Z,95.00
2022-10-28T21:36:17.493Z,95.00
2022-10-28T21:38:45.081Z,95.00
2022-10-28T21:41:19.833Z,95.10
2022-10-28T21:43:49.469Z,95.10
2022-10-28T21:46:20.932Z,95.10
2022-10-28T21:48:50.930Z,95.10
2022-10-28T21:51:29.998Z,95.10
2022-10-28T21:54:36.669Z,95.10
2022-10-28T21:57:03.824Z,95.20
2022-10-28T21:59:30.894Z,95.20
2022-10-28T22:01:57.873Z,95.20
2022-10-28T22:04:25.247Z,95.30
2022-10-28T22:06:52.343Z,95.30
2022-10-28T22:09:19.219Z,95.30
2022-10-28T22:11:48.715Z,95.20
2022-10-28T22:14:16.362Z,95.20
2022-10-28T22:16:43.649Z,95.20
2022-10-28T22:19:17.469Z,95.20
2022-10-28T22:21:44.685Z,95.20
2022-10-28T22:24:13.951Z,95.20
2022-10-28T22:26:40.932Z,95.20
2022-10-28T22:29:07.866Z,95.20
2022-10-28T22:31:34.856Z,95.20
2022-10-28T22:34:02.060Z,95.20
2022-10-28T22:36:30.433Z,95.20
2022-10-28T22:38:57.646Z,95.20
2022-10-28T22:41:28.955Z,95.20
2022-10-28T22:43:58.174Z,95.10
2022-10-28T22:46:28.356Z,95.10
2022-10-28T22:48:55.496Z,95.10
2022-10-28T22:51:23.366Z,95.10
2022-10-28T22:53:50.533Z,95.20
2022-10-28T22:56:22.832Z,95.20
2022-10-28T22:58:54.528Z,95.20
2022-10-28T23:01:21.938Z,95.30
2022-10-28T23:03:51.021Z,95.30
2022-10-28T23:06:26.603Z,95.30
2022-10-28T23:08:54.515Z,95.40
2022-10-28T23:11:22.884Z,95.40
2022-10-28T23:13:54.202Z,95.40
2022-10-28T23:16:22.792Z,95.40
2022-10-28T23:18:50.036Z,95.50
2022-10-28T23:21:21.944Z,95.50
2022-10-28T23:23:57.924Z,95.50
2022-10-28T23:26:33.987Z,95.50
2022-10-28T23:29:01.191Z,95.60
2022-10-28T23:31:28.927Z,95.60
2022-10-28T23:33:56.633Z,95.60
2022-10-28T23:36:23.958Z,95.70
2022-10-28T23:38:51.155Z,95.70
2022-10-28T23:41:22.133Z,95.70
2022-10-28T23:43:52.720Z,95.70
2022-10-28T23:46:20.651Z,95.70
2022-10-28T23:48:47.925Z,95.80
2022-10-28T23:51:15.298Z,95.80
2022-10-28T23:53:45.632Z,96.10
2022-10-28T23:56:23.204Z,95.80
2022-10-28T23:58:50.456Z,95.90
